sensor_id;sensor_type;location;lat;lon;timestamp;pressure;altitude;pressure_sealevel;temperature;humidity
57668;BME280;43499;52.366;12.912;2022-12-18T00:01:04;102969.09;;;-7.47;100.00
57668;BME280;43499;52.366;12.912;2022-12-18T00:02:07;102976.28;;;-7.40;100.00
57668;BME280;43499;52.366;12.912;2022-12-18T00:03:08;102965.16;;;-7.41;100.00
57668;BME280;43499;52.366;12.912;2022-12-18T00:04:18;102973.66;;;-7.36;100.00
57668;BME280;43499;52.366;12.912;2022-12-18T00:05:20;102966.84;;;-7.46;100.00
57668;BME280;43499;52.366;12.912;2022-12-18T00:06:23;102970.97;;;-7.46;100.00
57668;BME280;43499;52.366;12.912;2022-12-18T00:07:24;102967.97;;;-7.39;100.00
57668;BME280;43499;52.366;12.912;2022-12-18T00:08:25;102920.44;;;-7.71;100.00
57668;BME280;43499;52.366;12.912;2022-12-18T00:09:26;102974.59;;;-7.36;100.00
57668;BME280;43499;52.366;12.912;2022-12-18T00:10:28;102973.78;;;-7.59;100.00
57668;BME280;43499;52.366;12.912;2022-12-18T00:11:30;102970.88;;;-7.56;100.00
57668;BME280;43499;52.366;12.912;2022-12-18T00:12:31;102970.03;;;-7.61;100.00
57668;BME280;43499;52.366;12.912;2022-12-18T00:13:33;102981.00;;;-7.52;100.00
57668;BME280;43499;52.366;12.912;2022-12-18T00:14:34;102910.31;;;-7.93;100.00
57668;BME280;43499;52.366;12.912;2022-12-18T00:15:35;102938.66;;;-7.73;100.00
57668;BME280;43499;52.366;12.912;2022-12-18T00:16:37;102927.50;;;-7.74;100.00
57668;BME280;43499;52.366;12.912;2022-12-18T00:17:38;102954.97;;;-7.59;100.00
57668;BME280;43499;52.366;12.912;2022-12-18T00:18:39;102983.31;;;-7.39;100.00
57668;BME280;43499;52.366;12.912;2022-12-18T00:19:40;102988.59;;;-7.48;100.00
57668;BME280;43499;52.366;12.912;2022-12-18T00:20:41;102950.53;;;-7.60;100.00
57668;BME280;43499;52.366;12.912;2022-12-18T00:21:43;102965.66;;;-7.52;100.00
57668;BME280;43499;52.366;12.912;2022-12-18T00:22:44;102974.41;;;-7.41;100.00
57668;BME280;43499;52.366;12.912;2022-12-18T00:23:46;102977.84;;;-7.37;100.00
57668;BME280;43499;52.366;12.912;2022-12-18T00:24:48;102969.28;;;-7.41;100.00
57668;BME280;43499;52.366;12.912;2022-12-18T00:25:49;102962.13;;;-7.48;100.00
57668;BME280;43499;52.366;12.912;2022-12-18T00:26:50;102982.00;;;-7.37;100.00
57668;BME280;43499;52.366;12.912;2022-12-18T00:27:51;102975.75;;;-7.44;100.00
57668;BME280;43499;52.366;12.912;2022-12-18T00:28:53;102915.78;;;-7.78;100.00
57668;BME280;43499;52.366;12.912;2022-12-18T00:29:54;102969.25;;;-7.55;100.00
57668;BME280;43499;52.366;12.912;2022-12-18T00:31:02;102956.50;;;-7.55;100.00
57668;BME280;43499;52.366;12.912;2022-12-18T00:32:03;102931.28;;;-7.72;100.00
57668;BME280;43499;52.366;12.912;2022-12-18T00:33:04;102920.75;;;-7.87;100.00
57668;BME280;43499;52.366;12.912;2022-12-18T00:34:05;102930.78;;;-7.79;100.00
57668;BME280;43499;52.366;12.912;2022-12-18T00:35:06;102930.50;;;-7.81;100.00
57668;BME280;43499;52.366;12.912;2022-12-18T00:36:13;102951.13;;;-7.75;100.00
57668;BME280;43499;52.366;12.912;2022-12-18T00:37:15;102975.63;;;-7.71;100.00
57668;BME280;43499;52.366;12.912;2022-12-18T00:38:16;102973.94;;;-7.67;100.00
57668;BME280;43499;52.366;12.912;2022-12-18T00:39:18;102913.97;;;-8.01;100.00
57668;BME280;43499;52.366;12.912;2022-12-18T00:40:19;102975.25;;;-7.69;100.00
57668;BME280;43499;52.366;12.912;2022-12-18T00:41:21;102975.84;;;-7.66;100.00
57668;BME280;43499;52.366;12.912;2022-12-18T00:42:42;102965.69;;;-7.70;100.00
57668;BME280;43499;52.366;12.912;2022-12-18T00:43:58;102962.22;;;-7.70;100.00
57668;BME280;43499;52.366;12.912;2022-12-18T00:44:59;102969.06;;;-7.61;100.00
57668;BME280;43499;52.366;12.912;2022-12-18T00:46:00;102979.41;;;-7.51;100.00
57668;BME280;43499;52.366;12.912;2022-12-18T00:47:01;102978.44;;;-7.52;100.00
57668;BME280;43499;52.366;12.912;2022-12-18T00:48:02;102980.13;;;-7.56;100.00
57668;BME280;43499;52.366;12.912;2022-12-18T00:49:04;102941.13;;;-7.69;100.00
57668;BME280;43499;52.366;12.912;2022-12-18T00:50:05;102976.09;;;-7.46;100.00
57668;BME280;43499;52.366;12.912;2022-12-18T00:51:06;102924.44;;;-7.81;100.00
57668;BME280;43499;52.366;12.912;2022-12-18T00:52:09;102981.78;;;-7.43;100.00
57668;BME280;43499;52.366;12.912;2022-12-18T00:53:11;102916.22;;;-7.84;100.00
57668;BME280;43499;52.366;12.912;2022-12-18T00:54:12;102971.75;;;-7.51;100.00
57668;BME280;43499;52.366;12.912;2022-12-18T00:55:13;102954.75;;;-7.65;100.00
57668;BME280;43499;52.366;12.912;2022-12-18T00:56:14;102931.81;;;-7.83;100.00
57668;BME280;43499;52.366;12.912;2022-12-18T00:57:15;102979.38;;;-7.65;100.00
57668;BME280;43499;52.366;12.912;2022-12-18T00:58:17;102928.97;;;-7.84;100.00
57668;BME280;43499;52.366;12.912;2022-12-18T00:59:18;102976.00;;;-7.56;100.00
57668;BME280;43499;52.366;12.912;2022-12-18T01:00:20;102938.31;;;-7.71;100.00
57668;BME280;43499;52.366;12.912;2022-12-18T01:01:21;102944.13;;;-7.76;100.00
57668;BME280;43499;52.366;12.912;2022-12-18T01:02:22;102938.38;;;-7.75;100.00
57668;BME280;43499;52.366;12.912;2022-12-18T01:03:24;102956.06;;;-7.67;100.00
57668;BME280;43499;52.366;12.912;2022-12-18T01:04:25;102908.16;;;-7.96;100.00
57668;BME280;43499;52.366;12.912;2022-12-18T01:05:26;102996.03;;;-7.53;100.00
57668;BME280;43499;52.366;12.912;2022-12-18T01:06:28;102997.47;;;-7.60;100.00
57668;BME280;43499;52.366;12.912;2022-12-18T01:07:29;102986.34;;;-7.64;100.00
57668;BME280;43499;52.366;12.912;2022-12-18T01:08:30;102968.94;;;-7.71;100.00
57668;BME280;43499;52.366;12.912;2022-12-18T01:09:31;102969.66;;;-7.76;100.00
57668;BME280;43499;52.366;12.912;2022-12-18T01:10:32;102941.31;;;-7.96;100.00
57668;BME280;43499;52.366;12.912;2022-12-18T01:11:34;102944.94;;;-7.85;100.00
57668;BME280;43499;52.366;12.912;2022-12-18T01:12:35;102990.66;;;-7.55;100.00
57668;BME280;43499;52.366;12.912;2022-12-18T01:13:36;102999.53;;;-7.53;100.00
57668;BME280;43499;52.366;12.912;2022-12-18T01:14:37;102943.06;;;-7.86;100.00
57668;BME280;43499;52.366;12.912;2022-12-18T01:15:39;102973.53;;;-7.78;100.00
57668;BME280;43499;52.366;12.912;2022-12-18T01:16:40;102957.56;;;-7.95;100.00
57668;BME280;43499;52.366;12.912;2022-12-18T01:17:42;102999.31;;;-7.59;100.00
57668;BME280;43499;52.366;12.912;2022-12-18T01:18:43;102984.16;;;-7.67;100.00
57668;BME280;43499;52.366;12.912;2022-12-18T01:19:44;103002.47;;;-7.55;100.00
57668;BME280;43499;52.366;12.912;2022-12-18T01:20:45;103000.00;;;-7.60;100.00
57668;BME280;43499;52.366;12.912;2022-12-18T01:21:46;102937.53;;;-7.98;100.00
57668;BME280;43499;52.366;12.912;2022-12-18T01:22:47;102974.19;;;-7.79;100.00
57668;BME280;43499;52.366;12.912;2022-12-18T01:23:53;102982.81;;;-7.79;100.00
57668;BME280;43499;52.366;12.912;2022-12-18T01:24:55;102944.09;;;-8.08;100.00
57668;BME280;43499;52.366;12.912;2022-12-18T01:25:57;102998.34;;;-7.73;100.00
57668;BME280;43499;52.366;12.912;2022-12-18T01:26:58;102992.25;;;-7.73;100.00
57668;BME280;43499;52.366;12.912;2022-12-18T01:27:59;102963.97;;;-7.97;100.00
57668;BME280;43499;52.366;12.912;2022-12-18T01:29:01;103002.03;;;-7.85;100.00
57668;BME280;43499;52.366;12.912;2022-12-18T01:30:02;102974.94;;;-8.02;100.00
57668;BME280;43499;52.366;12.912;2022-12-18T01:31:22;103010.25;;;-7.96;100.00
57668;BME280;43499;52.366;12.912;2022-12-18T01:32:23;102987.97;;;-8.01;100.00
57668;BME280;43499;52.366;12.912;2022-12-18T01:33:24;102938.78;;;-8.32;100.00
57668;BME280;43499;52.366;12.912;2022-12-18T01:34:25;102965.97;;;-8.18;100.00
57668;BME280;43499;52.366;12.912;2022-12-18T01:35:26;103015.13;;;-7.83;100.00
57668;BME280;43499;52.366;12.912;2022-12-18T01:36:31;103015.47;;;-7.86;100.00
57668;BME280;43499;52.366;12.912;2022-12-18T01:37:32;102981.94;;;-8.01;100.00
57668;BME280;43499;52.366;12.912;2022-12-18T01:38:33;103010.94;;;-7.83;100.00
57668;BME280;43499;52.366;12.912;2022-12-18T01:39:34;102961.97;;;-8.08;100.00
57668;BME280;43499;52.366;12.912;2022-12-18T01:40:36;102983.69;;;-7.92;100.00
57668;BME280;43499;52.366;12.912;2022-12-18T01:41:38;103023.78;;;-7.87;100.00
57668;BME280;43499;52.366;12.912;2022-12-18T01:42:58;103025.03;;;-7.85;100.00
57668;BME280;43499;52.366;12.912;2022-12-18T01:43:59;102992.16;;;-8.01;100.00
57668;BME280;43499;52.366;12.912;2022-12-18T01:46:12;103025.25;;;-7.79;100.00
57668;BME280;43499;52.366;12.912;2022-12-18T01:47:18;103031.66;;;-7.81;100.00
57668;BME280;43499;52.366;12.912;2022-12-18T01:48:21;103020.66;;;-7.90;100.00
57668;BME280;43499;52.366;12.912;2022-12-18T01:49:22;103030.78;;;-7.86;100.00
57668;BME280;43499;52.366;12.912;2022-12-18T01:50:27;103025.56;;;-7.78;100.00
57668;BME280;43499;52.366;12.912;2022-12-18T01:51:31;102988.13;;;-8.09;100.00
57668;BME280;43499;52.366;12.912;2022-12-18T01:52:33;103020.28;;;-7.87;100.00
57668;BME280;43499;52.366;12.912;2022-12-18T01:53:34;103009.50;;;-7.91;100.00
57668;BME280;43499;52.366;12.912;2022-12-18T01:54:36;102986.66;;;-7.99;100.00
57668;BME280;43499;52.366;12.912;2022-12-18T01:55:43;102970.19;;;-8.05;100.00
57668;BME280;43499;52.366;12.912;2022-12-18T01:56:48;103039.53;;;-7.76;100.00
57668;BME280;43499;52.366;12.912;2022-12-18T01:57:52;103042.41;;;-7.74;100.00
57668;BME280;43499;52.366;12.912;2022-12-18T01:59:05;103034.44;;;-7.76;100.00
57668;BME280;43499;52.366;12.912;2022-12-18T02:00:15;103028.53;;;-7.84;100.00
57668;BME280;43499;52.366;12.912;2022-12-18T02:01:17;103022.84;;;-7.87;100.00
57668;BME280;43499;52.366;12.912;2022-12-18T02:02:20;103033.13;;;-7.73;100.00
57668;BME280;43499;52.366;12.912;2022-12-18T02:03:21;103039.25;;;-7.77;100.00
57668;BME280;43499;52.366;12.912;2022-12-18T02:04:25;103030.72;;;-7.82;100.00
57668;BME280;43499;52.366;12.912;2022-12-18T02:05:38;103019.09;;;-7.76;100.00
57668;BME280;43499;52.366;12.912;2022-12-18T02:06:42;103017.53;;;-7.75;100.00
57668;BME280;43499;52.366;12.912;2022-12-18T02:08:03;103017.53;;;-7.75;100.00
57668;BME280;43499;52.366;12.912;2022-12-18T02:09:15;103017.69;;;-7.83;100.00
57668;BME280;43499;52.366;12.912;2022-12-18T02:10:31;103024.91;;;-7.77;100.00
57668;BME280;43499;52.366;12.912;2022-12-18T02:11:44;103007.75;;;-7.82;100.00
57668;BME280;43499;52.366;12.912;2022-12-18T02:17:16;103020.44;;;-7.60;100.00
57668;BME280;43499;52.366;12.912;2022-12-18T02:18:21;102993.88;;;-7.74;100.00
57668;BME280;43499;52.366;12.912;2022-12-18T02:21:26;103004.69;;;-7.71;100.00
57668;BME280;43499;52.366;12.912;2022-12-18T02:22:40;103024.97;;;-7.63;100.00
57668;BME280;43499;52.366;12.912;2022-12-18T02:24:17;103029.97;;;-7.59;100.00
57668;BME280;43499;52.366;12.912;2022-12-18T02:25:39;103033.75;;;-7.56;100.00
57668;BME280;43499;52.366;12.912;2022-12-18T02:26:58;103025.63;;;-7.64;100.00
57668;BME280;43499;52.366;12.912;2022-12-18T02:28:06;103046.47;;;-7.52;100.00
57668;BME280;43499;52.366;12.912;2022-12-18T02:29:12;102978.19;;;-7.90;100.00
57668;BME280;43499;52.366;12.912;2022-12-18T02:30:15;102957.63;;;-7.99;100.00
57668;BME280;43499;52.366;12.912;2022-12-18T02:31:21;103005.13;;;-7.78;100.00
57668;BME280;43499;52.366;12.912;2022-12-18T02:32:29;103040.56;;;-7.61;100.00
57668;BME280;43499;52.366;12.912;2022-12-18T02:33:34;103015.34;;;-7.78;100.00
57668;BME280;43499;52.366;12.912;2022-12-18T02:34:38;102995.13;;;-7.90;100.00
57668;BME280;43499;52.366;12.912;2022-12-18T02:35:42;103015.34;;;-7.78;100.00
57668;BME280;43499;52.366;12.912;2022-12-18T02:36:46;103028.09;;;-7.78;100.00
57668;BME280;43499;52.366;12.912;2022-12-18T02:37:50;102957.34;;;-8.19;100.00
57668;BME280;43499;52.366;12.912;2022-12-18T02:38:52;103018.03;;;-7.86;100.00
57668;BME280;43499;52.366;12.912;2022-12-18T02:39:56;102981.06;;;-8.06;100.00
57668;BME280;43499;52.366;12.912;2022-12-18T02:40:59;103044.84;;;-7.70;100.00
57668;BME280;43499;52.366;12.912;2022-12-18T02:42:01;103035.41;;;-7.75;100.00
57668;BME280;43499;52.366;12.912;2022-12-18T02:43:13;103005.47;;;-7.98;100.00
57668;BME280;43499;52.366;12.912;2022-12-18T02:44:15;103036.44;;;-7.79;100.00
57668;BME280;43499;52.366;12.912;2022-12-18T02:45:17;103048.38;;;-7.69;100.00
57668;BME280;43499;52.366;12.912;2022-12-18T02:46:31;103046.19;;;-7.72;100.00
57668;BME280;43499;52.366;12.912;2022-12-18T02:47:41;103036.31;;;-7.75;100.00
57668;BME280;43499;52.366;12.912;2022-12-18T02:48:43;103024.81;;;-7.72;100.00
57668;BME280;43499;52.366;12.912;2022-12-18T02:51:06;103046.41;;;-7.66;100.00
57668;BME280;43499;52.366;12.912;2022-12-18T02:52:21;103046.47;;;-7.70;100.00
57668;BME280;43499;52.366;12.912;2022-12-18T02:53:33;103054.56;;;-7.77;100.00
57668;BME280;43499;52.366;12.912;2022-12-18T02:56:23;103031.50;;;-8.09;100.00
57668;BME280;43499;52.366;12.912;2022-12-18T02:57:34;103053.03;;;-7.99;100.00
57668;BME280;43499;52.366;12.912;2022-12-18T02:59:06;103017.50;;;-8.11;100.00
57668;BME280;43499;52.366;12.912;2022-12-18T03:00:21;103019.25;;;-8.02;100.00
57668;BME280;43499;52.366;12.912;2022-12-18T03:01:35;102997.09;;;-8.11;100.00
57668;BME280;43499;52.366;12.912;2022-12-18T03:02:48;103046.75;;;-7.87;100.00
57668;BME280;43499;52.366;12.912;2022-12-18T03:04:01;103045.66;;;-7.79;100.00
57668;BME280;43499;52.366;12.912;2022-12-18T03:05:12;103042.09;;;-7.76;100.00
57668;BME280;43499;52.366;12.912;2022-12-18T03:06:24;103020.50;;;-7.82;100.00
57668;BME280;43499;52.366;12.912;2022-12-18T03:07:35;103012.25;;;-7.85;100.00
57668;BME280;43499;52.366;12.912;2022-12-18T03:08:43;103006.28;;;-7.90;100.00
57668;BME280;43499;52.366;12.912;2022-12-18T03:09:48;103043.34;;;-7.73;100.00
57668;BME280;43499;52.366;12.912;2022-12-18T03:11:01;103041.75;;;-7.73;100.00
57668;BME280;43499;52.366;12.912;2022-12-18T03:12:14;103040.13;;;-7.72;100.00
57668;BME280;43499;52.366;12.912;2022-12-18T03:13:51;103041.31;;;-7.84;100.00
57668;BME280;43499;52.366;12.912;2022-12-18T03:15:03;103044.56;;;-7.90;100.00
57668;BME280;43499;52.366;12.912;2022-12-18T03:16:08;103018.38;;;-8.07;100.00
57668;BME280;43499;52.366;12.912;2022-12-18T03:17:15;103040.50;;;-7.93;100.00
57668;BME280;43499;52.366;12.912;2022-12-18T03:18:37;103036.91;;;-7.90;100.00
57668;BME280;43499;52.366;12.912;2022-12-18T03:19:41;103040.66;;;-7.83;100.00
57668;BME280;43499;52.366;12.912;2022-12-18T03:20:45;103030.34;;;-7.79;100.00
57668;BME280;43499;52.366;12.912;2022-12-18T03:21:53;103015.84;;;-7.88;100.00
57668;BME280;43499;52.366;12.912;2022-12-18T03:22:59;103023.72;;;-7.83;100.00
57668;BME280;43499;52.366;12.912;2022-12-18T03:24:06;103033.06;;;-7.69;100.00
57668;BME280;43499;52.366;12.912;2022-12-18T03:25:11;103039.31;;;-7.63;100.00
57668;BME280;43499;52.366;12.912;2022-12-18T03:26:16;103027.34;;;-7.72;100.00
57668;BME280;43499;52.366;12.912;2022-12-18T03:27:20;103034.59;;;-7.66;100.00
57668;BME280;43499;52.366;12.912;2022-12-18T03:28:28;103034.31;;;-7.67;100.00
57668;BME280;43499;52.366;12.912;2022-12-18T03:29:42;103017.78;;;-7.73;100.00
57668;BME280;43499;52.366;12.912;2022-12-18T03:30:52;103017.91;;;-7.78;100.00
57668;BME280;43499;52.366;12.912;2022-12-18T03:32:02;103034.09;;;-7.73;100.00
57668;BME280;43499;52.366;12.912;2022-12-18T03:33:10;102995.56;;;-7.79;100.00
57668;BME280;43499;52.366;12.912;2022-12-18T03:34:21;103027.19;;;-7.64;100.00
57668;BME280;43499;52.366;12.912;2022-12-18T03:35:29;103031.16;;;-7.70;100.00
57668;BME280;43499;52.366;12.912;2022-12-18T03:36:31;103011.22;;;-7.81;100.00
57668;BME280;43499;52.366;12.912;2022-12-18T03:37:32;102980.53;;;-7.95;100.00
57668;BME280;43499;52.366;12.912;2022-12-18T03:38:34;103000.75;;;-7.83;100.00
57668;BME280;43499;52.366;12.912;2022-12-18T03:39:36;103020.06;;;-7.75;100.00
57668;BME280;43499;52.366;12.912;2022-12-18T03:42:26;103001.91;;;-7.77;100.00
57668;BME280;43499;52.366;12.912;2022-12-18T03:43:43;103019.63;;;-7.68;100.00
57668;BME280;43499;52.366;12.912;2022-12-18T03:44:57;103034.13;;;-7.59;100.00
57668;BME280;43499;52.366;12.912;2022-12-18T03:46:24;103025.38;;;-7.51;100.00
57668;BME280;43499;52.366;12.912;2022-12-18T03:47:30;102992.63;;;-7.76;100.00
57668;BME280;43499;52.366;12.912;2022-12-18T03:48:44;103014.16;;;-7.66;100.00
57668;BME280;43499;52.366;12.912;2022-12-18T03:49:59;103039.53;;;-7.57;100.00
57668;BME280;43499;52.366;12.912;2022-12-18T03:51:11;103048.22;;;-7.61;100.00
57668;BME280;43499;52.366;12.912;2022-12-18T03:52:24;103034.38;;;-7.71;100.00
57668;BME280;43499;52.366;12.912;2022-12-18T03:53:32;103039.84;;;-7.74;100.00
57668;BME280;43499;52.366;12.912;2022-12-18T03:54:38;103049.31;;;-7.69;100.00
57668;BME280;43499;52.366;12.912;2022-12-18T03:55:47;103047.50;;;-7.74;100.00
57668;BME280;43499;52.366;12.912;2022-12-18T03:56:58;103039.19;;;-7.73;100.00
57668;BME280;43499;52.366;12.912;2022-12-18T03:58:01;102981.34;;;-8.04;100.00
57668;BME280;43499;52.366;12.912;2022-12-18T03:59:15;103044.72;;;-7.62;100.00
57668;BME280;43499;52.366;12.912;2022-12-18T04:00:18;103010.25;;;-7.78;100.00
57668;BME280;43499;52.366;12.912;2022-12-18T04:01:40;103020.28;;;-7.69;100.00
57668;BME280;43499;52.366;12.912;2022-12-18T04:02:48;103059.41;;;-7.61;100.00
57668;BME280;43499;52.366;12.912;2022-12-18T04:03:59;103055.75;;;-7.71;100.00
57668;BME280;43499;52.366;12.912;2022-12-18T04:05:03;103053.47;;;-7.69;100.00
57668;BME280;43499;52.366;12.912;2022-12-18T04:06:05;103062.03;;;-7.65;100.00
57668;BME280;43499;52.366;12.912;2022-12-18T04:07:07;103066.84;;;-7.66;100.00
57668;BME280;43499;52.366;12.912;2022-12-18T04:08:12;103037.34;;;-7.78;100.00
57668;BME280;43499;52.366;12.912;2022-12-18T04:09:18;103060.19;;;-7.70;100.00
57668;BME280;43499;52.366;12.912;2022-12-18T04:10:21;103052.84;;;-7.68;100.00
57668;BME280;43499;52.366;12.912;2022-12-18T04:11:23;103045.31;;;-7.77;100.00
57668;BME280;43499;52.366;12.912;2022-12-18T04:12:28;103063.25;;;-7.63;100.00
57668;BME280;43499;52.366;12.912;2022-12-18T04:13:36;103053.47;;;-7.69;100.00
57668;BME280;43499;52.366;12.912;2022-12-18T04:14:40;103074.84;;;-7.69;100.00
57668;BME280;43499;52.366;12.912;2022-12-18T04:15:43;103070.84;;;-7.77;100.00
57668;BME280;43499;52.366;12.912;2022-12-18T04:16:47;103087.72;;;-7.73;100.00
57668;BME280;43499;52.366;12.912;2022-12-18T04:17:51;103067.06;;;-7.79;100.00
57668;BME280;43499;52.366;12.912;2022-12-18T04:18:56;103047.34;;;-7.84;100.00
57668;BME280;43499;52.366;12.912;2022-12-18T04:19:59;103070.31;;;-7.84;100.00
57668;BME280;43499;52.366;12.912;2022-12-18T04:21:00;103038.75;;;-8.02;100.00
57668;BME280;43499;52.366;12.912;2022-12-18T04:22:01;103040.91;;;-8.00;100.00
57668;BME280;43499;52.366;12.912;2022-12-18T04:23:05;103068.75;;;-7.83;100.00
57668;BME280;43499;52.366;12.912;2022-12-18T04:24:07;103045.09;;;-8.00;100.00
57668;BME280;43499;52.366;12.912;2022-12-18T04:25:12;103061.41;;;-7.86;100.00
57668;BME280;43499;52.366;12.912;2022-12-18T04:26:18;103072.50;;;-7.81;100.00
57668;BME280;43499;52.366;12.912;2022-12-18T04:27:28;103079.81;;;-7.79;100.00
57668;BME280;43499;52.366;12.912;2022-12-18T04:28:29;103074.56;;;-7.70;100.00
57668;BME280;43499;52.366;12.912;2022-12-18T04:29:30;103035.22;;;-7.85;100.00
57668;BME280;43499;52.366;12.912;2022-12-18T04:30:32;103045.44;;;-7.85;100.00
57668;BME280;43499;52.366;12.912;2022-12-18T04:31:33;103067.28;;;-7.73;100.00
57668;BME280;43499;52.366;12.912;2022-12-18T04:32:34;103051.31;;;-7.72;100.00
57668;BME280;43499;52.366;12.912;2022-12-18T04:33:36;103048.16;;;-7.75;100.00
57668;BME280;43499;52.366;12.912;2022-12-18T04:34:38;103040.88;;;-7.78;100.00
57668;BME280;43499;52.366;12.912;2022-12-18T04:35:41;103069.19;;;-7.72;100.00
57668;BME280;43499;52.366;12.912;2022-12-18T04:36:42;102992.59;;;-8.08;100.00
57668;BME280;43499;52.366;12.912;2022-12-18T04:37:44;103011.69;;;-8.06;100.00
57668;BME280;43499;52.366;12.912;2022-12-18T04:38:45;103047.72;;;-7.86;100.00
57668;BME280;43499;52.366;12.912;2022-12-18T04:39:49;103069.19;;;-7.72;100.00
57668;BME280;43499;52.366;12.912;2022-12-18T04:40:58;103059.75;;;-7.81;100.00
57668;BME280;43499;52.366;12.912;2022-12-18T04:42:01;103066.03;;;-7.75;100.00
57668;BME280;43499;52.366;12.912;2022-12-18T04:43:03;103034.00;;;-7.87;100.00
57668;BME280;43499;52.366;12.912;2022-12-18T04:44:04;103026.19;;;-7.97;100.00
57668;BME280;43499;52.366;12.912;2022-12-18T04:45:06;102985.88;;;-8.08;100.00
57668;BME280;43499;52.366;12.912;2022-12-18T04:46:08;103046.53;;;-7.75;100.00
57668;BME280;43499;52.366;12.912;2022-12-18T04:47:09;103037.00;;;-7.94;100.00
57668;BME280;43499;52.366;12.912;2022-12-18T04:48:10;103066.41;;;-7.78;100.00
57668;BME280;43499;52.366;12.912;2022-12-18T04:49:11;103052.41;;;-7.80;100.00
57668;BME280;43499;52.366;12.912;2022-12-18T04:50:12;103062.16;;;-7.73;100.00
57668;BME280;43499;52.366;12.912;2022-12-18T04:51:13;103064.63;;;-7.69;100.00
57668;BME280;43499;52.366;12.912;2022-12-18T04:52:14;103067.41;;;-7.63;100.00
57668;BME280;43499;52.366;12.912;2022-12-18T04:53:15;103026.69;;;-7.90;100.00
57668;BME280;43499;52.366;12.912;2022-12-18T04:54:16;103069.69;;;-7.65;100.00
57668;BME280;43499;52.366;12.912;2022-12-18T04:55:17;103069.69;;;-7.65;100.00
57668;BME280;43499;52.366;12.912;2022-12-18T04:56:19;103063.31;;;-7.67;100.00
57668;BME280;43499;52.366;12.912;2022-12-18T04:57:20;103022.13;;;-7.82;100.00
57668;BME280;43499;52.366;12.912;2022-12-18T04:58:21;103017.94;;;-8.00;100.00
57668;BME280;43499;52.366;12.912;2022-12-18T04:59:22;103076.84;;;-7.72;100.00
57668;BME280;43499;52.366;12.912;2022-12-18T05:00:23;103038.88;;;-7.93;100.00
57668;BME280;43499;52.366;12.912;2022-12-18T05:01:24;103066.25;;;-7.69;100.00
57668;BME280;43499;52.366;12.912;2022-12-18T05:02:25;103070.94;;;-7.63;100.00
57668;BME280;43499;52.366;12.912;2022-12-18T05:03:27;103089.84;;;-7.48;100.00
57668;BME280;43499;52.366;12.912;2022-12-18T05:04:28;103078.16;;;-7.56;100.00
57668;BME280;43499;52.366;12.912;2022-12-18T05:05:29;103083.16;;;-7.52;100.00
57668;BME280;43499;52.366;12.912;2022-12-18T05:06:30;103065.75;;;-7.77;100.00
57668;BME280;43499;52.366;12.912;2022-12-18T05:07:32;103068.44;;;-7.67;100.00
57668;BME280;43499;52.366;12.912;2022-12-18T05:08:33;103077.34;;;-7.65;100.00
57668;BME280;43499;52.366;12.912;2022-12-18T05:09:34;103048.66;;;-7.86;100.00
57668;BME280;43499;52.366;12.912;2022-12-18T05:10:35;103101.84;;;-7.61;100.00
57668;BME280;43499;52.366;12.912;2022-12-18T05:11:36;103094.78;;;-7.58;100.00
57668;BME280;43499;52.366;12.912;2022-12-18T05:12:37;103049.47;;;-7.95;100.00
57668;BME280;43499;52.366;12.912;2022-12-18T05:13:58;103096.25;;;-7.68;100.00
57668;BME280;43499;52.366;12.912;2022-12-18T05:14:59;103086.75;;;-7.73;100.00
57668;BME280;43499;52.366;12.912;2022-12-18T05:16:02;103102.44;;;-7.58;100.00
57668;BME280;43499;52.366;12.912;2022-12-18T05:17:03;103044.28;;;-7.91;100.00
57668;BME280;43499;52.366;12.912;2022-12-18T05:18:04;103073.19;;;-7.82;100.00
57668;BME280;43499;52.366;12.912;2022-12-18T05:19:05;103098.78;;;-7.68;100.00
57668;BME280;43499;52.366;12.912;2022-12-18T05:20:06;103044.88;;;-8.06;100.00
57668;BME280;43499;52.366;12.912;2022-12-18T05:21:07;103080.91;;;-7.86;100.00
57668;BME280;43499;52.366;12.912;2022-12-18T05:22:08;103065.31;;;-7.88;100.00
57668;BME280;43499;52.366;12.912;2022-12-18T05:23:09;103113.03;;;-7.61;100.00
57668;BME280;43499;52.366;12.912;2022-12-18T05:24:10;103048.53;;;-7.96;100.00
57668;BME280;43499;52.366;12.912;2022-12-18T05:25:12;103072.28;;;-7.87;100.00
57668;BME280;43499;52.366;12.912;2022-12-18T05:26:16;103103.16;;;-7.63;100.00
57668;BME280;43499;52.366;12.912;2022-12-18T05:27:17;103073.47;;;-7.81;100.00
57668;BME280;43499;52.366;12.912;2022-12-18T05:28:22;103113.59;;;-7.57;100.00
57668;BME280;43499;52.366;12.912;2022-12-18T05:29:23;103117.03;;;-7.53;100.00
57668;BME280;43499;52.366;12.912;2022-12-18T05:30:24;103089.88;;;-7.70;100.00
57668;BME280;43499;52.366;12.912;2022-12-18T05:31:25;103074.06;;;-7.78;100.00
57668;BME280;43499;52.366;12.912;2022-12-18T05:32:26;103099.63;;;-7.60;100.00
57668;BME280;43499;52.366;12.912;2022-12-18T05:33:33;103094.94;;;-7.66;100.00
57668;BME280;43499;52.366;12.912;2022-12-18T05:34:34;103113.53;;;-7.53;100.00
57668;BME280;43499;52.366;12.912;2022-12-18T05:35:35;103109.03;;;-7.50;100.00
57668;BME280;43499;52.366;12.912;2022-12-18T05:36:36;103073.31;;;-7.72;100.00
57668;BME280;43499;52.366;12.912;2022-12-18T05:37:37;103051.56;;;-7.88;100.00
57668;BME280;43499;52.366;12.912;2022-12-18T05:38:39;103114.41;;;-7.49;100.00
57668;BME280;43499;52.366;12.912;2022-12-18T05:39:40;103122.34;;;-7.47;100.00
57668;BME280;43499;52.366;12.912;2022-12-18T05:40:42;103111.03;;;-7.57;100.00
57668;BME280;43499;52.366;12.912;2022-12-18T05:41:44;103069.41;;;-7.84;100.00
57668;BME280;43499;52.366;12.912;2022-12-18T05:42:45;103107.28;;;-7.60;100.00